Time;durP1;ratioP1;P1;durP2;ratioP2;P2;SDS_P1;SDS_P2;PMS_P1;PMS_P2;Temp;Humidity;BMP_temperature;BMP_pressure;BME280_temperature;BME280_humidity;BME280_pressure;Samples;Min_cycle;Max_cycle;Signal;HPM_P1;HPM_P2
2023/05/04 00:00:56;;;;;;;;;7.00;5.25;;;;;20.16;39.09;101059.56;5075433;27;46125;-71
2023/05/04 00:03:21;;;;;;;;;5.00;4.75;;;;;20.16;39.43;101063.06;5075074;27;49222;-71
2023/05/04 00:05:47;;;;;;;;;4.50;4.50;;;;;20.15;39.31;101049.88;5074438;27;46832;-71
2023/05/04 00:08:12;;;;;;;;;5.25;4.00;;;;;20.15;39.34;101050.75;5075401;28;70458;-71
2023/05/04 00:10:37;;;;;;;;;6.00;4.00;;;;;20.15;39.38;101052.53;5080825;27;64896;-71
2023/05/04 00:13:03;;;;;;;;;5.75;5.00;;;;;20.12;39.10;101040.31;5072386;27;45695;-71
2023/05/04 00:15:29;;;;;;;;;6.00;5.00;;;;;20.11;39.07;101033.28;5075217;27;61448;-71
2023/05/04 00:17:55;;;;;;;;;3.50;3.25;;;;;20.14;39.18;101027.78;5076790;28;45355;-71
2023/05/04 00:20:20;;;;;;;;;3.75;3.75;;;;;20.11;39.63;101020.00;5063378;28;45396;-72
2023/05/04 00:22:46;;;;;;;;;5.50;4.00;;;;;20.12;39.54;101019.06;5075644;27;45844;-71
2023/05/04 00:25:11;;;;;;;;;6.00;4.25;;;;;20.15;39.27;101020.66;5074324;27;58574;-71
2023/05/04 00:27:36;;;;;;;;;5.00;5.00;;;;;20.14;39.51;101019.81;5072791;27;70541;-72
2023/05/04 00:30:02;;;;;;;;;5.00;5.00;;;;;20.15;39.42;101025.97;5073261;27;45415;-71
2023/05/04 00:32:27;;;;;;;;;5.00;5.00;;;;;20.13;39.16;101022.56;5078347;27;45483;-71
2023/05/04 00:34:53;;;;;;;;;4.00;4.00;;;;;20.13;39.00;101018.09;5080096;27;45520;-72
2023/05/04 00:37:18;;;;;;;;;4.25;4.25;;;;;20.13;39.44;101012.78;5075220;27;48089;-71
2023/05/04 00:39:43;;;;;;;;;4.00;4.00;;;;;20.14;39.04;101022.47;5081068;27;45370;-71
2023/05/04 00:42:09;;;;;;;;;4.50;4.50;;;;;20.13;39.17;101012.78;5072466;28;58605;-71
2023/05/04 00:44:34;;;;;;;;;4.75;4.00;;;;;20.14;39.34;101011.00;5071444;27;66820;-71
2023/05/04 00:47:01;;;;;;;;;5.00;4.75;;;;;20.14;39.34;101013.66;5073476;28;46817;-71
2023/05/04 00:49:29;;;;;;;;;3.50;3.50;;;;;20.14;39.24;101018.97;5079547;27;45253;-71
2023/05/04 00:51:56;;;;;;;;;4.00;4.00;;;;;20.14;39.15;101011.84;5086514;27;45432;-71
2023/05/04 00:54:22;;;;;;;;;4.25;4.25;;;;;20.14;39.61;101008.34;5074530;28;59420;-71
2023/05/04 00:56:48;;;;;;;;;4.25;4.00;;;;;20.12;39.36;101005.78;5074187;27;67266;-71
2023/05/04 00:59:13;;;;;;;;;5.00;4.00;;;;;20.11;39.51;100998.75;5074639;27;45306;-72
2023/05/04 01:01:39;;;;;;;;;4.50;3.00;;;;;20.12;39.52;100994.31;5074801;27;45408;-71
2023/05/04 01:04:05;;;;;;;;;7.00;4.25;;;;;20.12;39.22;101000.47;5057896;28;45607;-71
2023/05/04 01:06:33;;;;;;;;;7.00;5.25;;;;;20.14;39.47;100989.75;5073790;27;45378;-71
2023/05/04 01:09:05;;;;;;;;;3.50;3.50;;;;;20.12;39.41;100989.00;5071371;27;45741;-71
2023/05/04 01:11:40;;;;;;;;;3.25;3.25;;;;;20.13;39.13;100985.34;5069055;28;45362;-72
2023/05/04 01:14:05;;;;;;;;;3.75;3.75;;;;;20.12;39.21;100978.34;5072947;27;45279;-71
2023/05/04 01:16:31;;;;;;;;;4.00;4.00;;;;;20.09;39.18;100979.38;5052719;28;47515;-71
2023/05/04 01:18:56;;;;;;;;;5.00;5.00;;;;;20.12;39.13;100986.34;5072579;27;45410;-71
2023/05/04 01:21:22;;;;;;;;;4.00;4.00;;;;;20.13;39.50;100972.91;5074120;28;53867;-71
2023/05/04 01:23:47;;;;;;;;;5.00;5.00;;;;;20.12;39.32;100970.38;5074231;28;69602;-71
2023/05/04 01:26:40;;;;;;;;;4.50;4.50;;;;;20.13;38.98;100972.06;5073701;28;47726;-71
2023/05/04 01:29:18;;;;;;;;;4.75;3.75;;;;;20.11;39.54;100972.16;5058760;28;45883;-71
2023/05/04 01:31:45;;;;;;;;;5.00;5.00;;;;;20.13;39.06;100980.03;5059920;28;45523;-71
2023/05/04 01:34:11;;;;;;;;;6.50;4.00;;;;;20.10;39.59;100973.13;5058903;28;45682;-71
2023/05/04 01:36:38;;;;;;;;;4.00;3.75;;;;;20.13;38.97;100974.72;5055232;27;45472;-71
2023/05/04 01:39:07;;;;;;;;;4.50;3.00;;;;;20.12;39.36;100978.34;5060698;28;45328;-71
2023/05/04 01:41:32;;;;;;;;;5.00;4.00;;;;;20.12;39.49;100970.38;5077206;27;45201;-71
2023/05/04 01:43:58;;;;;;;;;10.00;4.00;;;;;20.11;39.31;100972.16;5075557;27;45312;-71
2023/05/04 01:46:23;;;;;;;;;4.25;3.25;;;;;20.09;39.45;100958.13;5058930;27;46946;-71
2023/05/04 01:48:49;;;;;;;;;4.50;4.50;;;;;20.10;39.68;100966.00;5074450;28;45315;-71
2023/05/04 01:51:14;;;;;;;;;6.00;4.00;;;;;20.12;39.25;100959.75;5076094;28;46199;-71
2023/05/04 01:53:39;;;;;;;;;5.00;5.00;;;;;20.09;38.95;100961.63;5073234;27;48753;-71
2023/05/04 01:56:05;;;;;;;;;3.25;3.25;;;;;20.08;39.35;100949.31;5076653;28;45515;-71
2023/05/04 01:58:31;;;;;;;;;4.50;4.00;;;;;20.10;39.31;100960.69;5072069;27;45339;-71
2023/05/04 02:00:58;;;;;;;;;4.50;3.75;;;;;20.07;39.05;100955.56;5073865;27;45477;-72
2023/05/04 02:03:23;;;;;;;;;4.75;3.00;;;;;20.10;39.12;100958.03;5061856;28;45504;-71
2023/05/04 02:05:49;;;;;;;;;3.00;3.00;;;;;20.09;39.29;100958.97;5076903;28;46229;-71
2023/05/04 02:08:14;;;;;;;;;3.00;3.00;;;;;20.07;39.20;100955.56;5053508;28;45437;-71
2023/05/04 02:10:39;;;;;;;;;3.50;3.50;;;;;20.10;39.50;100957.19;5069620;27;62827;-72
2023/05/04 02:13:05;;;;;;;;;5.25;4.00;;;;;20.08;39.50;100957.28;5054573;28;45528;-71
2023/05/04 02:15:30;;;;;;;;;5.00;4.25;;;;;20.09;39.34;100956.31;5073298;27;67665;-71
2023/05/04 02:17:56;;;;;;;;;4.00;4.00;;;;;20.10;39.22;100963.34;5075176;28;45282;-71
2023/05/04 02:20:21;;;;;;;;;3.75;3.00;;;;;20.08;39.44;100953.78;5074578;27;59092;-71
2023/05/04 02:22:46;;;;;;;;;4.00;3.75;;;;;20.10;39.62;100960.69;5073133;27;45500;-71
2023/05/04 02:25:12;;;;;;;;;5.00;4.00;;;;;20.10;39.34;100952.72;5071358;28;45377;-71
2023/05/04 02:27:37;;;;;;;;;4.00;4.00;;;;;20.07;39.44;100952.91;5076786;28;69796;-71
2023/05/04 02:30:03;;;;;;;;;6.50;5.25;;;;;20.07;39.27;100947.59;5058178;28;45709;-71
2023/05/04 02:32:28;;;;;;;;;4.50;4.50;;;;;20.09;39.53;100948.34;5076107;27;45231;-71
2023/05/04 02:34:54;;;;;;;;;4.00;3.75;;;;;20.07;39.12;100939.63;5078102;27;47408;-71
2023/05/04 02:37:19;;;;;;;;;4.00;4.00;;;;;20.07;39.43;100938.78;5069316;28;66839;-71
2023/05/04 02:39:44;;;;;;;;;5.00;4.75;;;;;20.09;39.22;100945.69;5075441;28;45657;-71
2023/05/04 02:42:12;;;;;;;;;7.50;5.00;;;;;20.09;39.42;100940.38;5078455;27;67282;-72
2023/05/04 02:44:38;;;;;;;;;4.75;3.50;;;;;20.07;39.51;100934.31;5078165;27;45519;-71
2023/05/04 02:47:04;;;;;;;;;5.25;3.25;;;;;20.06;39.29;100926.44;5059184;27;45546;-71
2023/05/04 02:49:30;;;;;;;;;4.25;4.00;;;;;20.08;39.25;100930.72;5077022;27;45365;-71
2023/05/04 02:51:55;;;;;;;;;3.75;3.50;;;;;20.06;39.61;100929.09;5060255;28;45604;-71
2023/05/04 02:54:20;;;;;;;;;4.00;4.00;;;;;20.06;39.50;100927.31;5077143;27;65157;-71
2023/05/04 02:56:46;;;;;;;;;5.25;4.00;;;;;20.07;39.60;100930.81;5076100;27;45429;-71
2023/05/04 02:59:11;;;;;;;;;5.25;4.75;;;;;20.06;39.26;100929.09;5071653;27;65529;-71
2023/05/04 03:01:36;;;;;;;;;4.75;3.75;;;;;20.08;39.04;100927.22;5072480;27;58943;-71
2023/05/04 03:04:02;;;;;;;;;3.25;3.25;;;;;20.09;39.15;100924.44;5077606;27;45445;-71
2023/05/04 03:06:27;;;;;;;;;3.00;3.00;;;;;20.06;39.40;100914.03;5075067;27;60793;-71
2023/05/04 03:08:52;;;;;;;;;3.00;3.00;;;;;20.07;39.31;100921.03;5076187;27;63165;-71
2023/05/04 03:11:18;;;;;;;;;6.75;4.00;;;;;20.06;39.25;100918.47;5054724;28;45397;-71
2023/05/04 03:13:43;;;;;;;;;4.25;4.25;;;;;20.08;39.60;100922.75;5074413;27;46735;-71
2023/05/04 03:16:10;;;;;;;;;5.50;5.50;;;;;20.05;39.33;100908.81;5080148;28;45231;-71
2023/05/04 03:18:35;;;;;;;;;3.75;3.00;;;;;20.06;39.47;100915.81;5064399;28;45390;-71
2023/05/04 03:21:00;;;;;;;;;4.00;4.00;;;;;20.05;39.73;100900.84;5078816;28;55006;-71
2023/05/04 03:23:26;;;;;;;;;6.00;5.00;;;;;20.09;39.40;100899.69;5074000;28;47045;-71
2023/05/04 03:25:51;;;;;;;;;5.00;5.00;;;;;20.08;39.54;100898.00;5078025;27;72157;-71
2023/05/04 03:28:16;;;;;;;;;5.50;4.00;;;;;20.06;39.54;100897.22;5079677;27;67887;-71
2023/05/04 03:30:42;;;;;;;;;4.00;3.50;;;;;20.02;39.28;100890.41;5081153;27;66458;-71
2023/05/04 03:33:07;;;;;;;;;5.75;4.75;;;;;20.07;39.60;100898.94;5079426;27;46684;-71
2023/05/04 03:35:32;;;;;;;;;3.75;3.75;;;;;20.05;39.53;100893.72;5079018;27;70725;-71
2023/05/04 03:37:58;;;;;;;;;4.00;4.00;;;;;20.06;39.55;100889.25;5061955;27;49077;-71
2023/05/04 03:40:23;;;;;;;;;5.50;4.25;;;;;20.06;39.57;100886.59;5080285;27;67356;-71
2023/05/04 03:42:50;;;;;;;;;5.00;5.00;;;;;20.04;39.61;100878.75;5073807;27;64909;-72
2023/05/04 03:45:15;;;;;;;;;3.25;3.25;;;;;20.07;39.29;100885.66;5081326;27;45244;-71
2023/05/04 03:47:41;;;;;;;;;4.00;3.75;;;;;20.05;39.70;100887.56;5077629;28;45326;-71
2023/05/04 03:50:06;;;;;;;;;6.00;3.75;;;;;20.07;39.32;100893.63;5083125;27;45518;-71
2023/05/04 03:52:32;;;;;;;;;5.00;5.00;;;;;20.05;39.66;100893.72;5073689;27;45396;-71
2023/05/04 03:54:57;;;;;;;;;3.00;3.00;;;;;20.06;39.48;100897.22;5060164;28;45371;-71
2023/05/04 03:57:23;;;;;;;;;5.00;3.50;;;;;20.06;39.56;100897.22;5068156;28;51844;-71
2023/05/04 03:59:49;;;;;;;;;6.25;6.00;;;;;20.06;39.31;100894.56;5060017;28;45356;-71
2023/05/04 04:02:16;;;;;;;;;4.50;4.50;;;;;20.06;39.56;100900.75;5069293;28;47036;-71
2023/05/04 04:04:41;;;;;;;;;4.00;4.00;;;;;20.06;39.56;100890.13;5063517;28;45554;-71
2023/05/04 04:07:07;;;;;;;;;4.00;4.00;;;;;20.06;39.63;100889.25;5071382;27;45445;-71
2023/05/04 04:09:32;;;;;;;;;5.00;4.75;;;;;20.05;39.59;100884.91;5057463;28;46017;-71
2023/05/04 04:11:57;;;;;;;;;5.25;3.75;;;;;20.06;39.30;100881.28;5069714;27;59411;-71
2023/05/04 04:14:23;;;;;;;;;6.00;5.25;;;;;20.05;39.49;100880.44;5074147;27;65327;-71
2023/05/04 04:16:49;;;;;;;;;6.00;4.00;;;;;20.05;39.43;100882.25;5073436;27;45681;-71
2023/05/04 04:19:14;;;;;;;;;4.25;4.25;;;;;20.02;39.46;100877.97;5058928;28;45360;-71
2023/05/04 04:21:39;;;;;;;;;5.50;4.75;;;;;20.05;39.66;100877.78;5072270;27;46305;-71
2023/05/04 04:24:05;;;;;;;;;4.00;4.00;;;;;20.06;39.50;100878.63;5080630;27;71724;-71
2023/05/04 04:26:30;;;;;;;;;3.00;3.00;;;;;20.05;39.43;100882.25;5056502;28;54061;-71
2023/05/04 04:28:55;;;;;;;;;4.75;4.75;;;;;20.04;39.49;100881.41;5076201;27;60148;-71
2023/05/04 04:31:21;;;;;;;;;4.00;3.00;;;;;20.04;39.59;100884.06;5060896;27;46975;-71
2023/05/04 04:33:48;;;;;;;;;6.00;4.00;;;;;20.06;39.64;100875.97;5078821;27;45366;-71
2023/05/04 04:36:17;;;;;;;;;6.50;5.00;;;;;20.05;39.65;100876.94;5058777;28;45425;-71
2023/05/04 04:38:43;;;;;;;;;4.00;4.00;;;;;20.05;39.49;100871.63;5063058;28;45418;-71
2023/05/04 04:41:08;;;;;;;;;5.00;4.00;;;;;20.03;39.62;100861.09;5078404;27;46233;-71
2023/05/04 04:43:34;;;;;;;;;4.25;4.25;;;;;20.04;39.40;100864.59;5058450;28;74915;-71
2023/05/04 04:45:59;;;;;;;;;4.00;4.00;;;;;20.04;39.53;100851.31;5076853;28;45358;-71
2023/05/04 04:48:25;;;;;;;;;4.00;4.00;;;;;20.04;39.57;100859.28;5079185;27;45539;-71
2023/05/04 04:50:51;;;;;;;;;4.00;4.00;;;;;20.03;39.48;100853.13;5070571;28;73199;-71
2023/05/04 04:53:17;;;;;;;;;3.75;3.00;;;;;20.05;39.42;100856.53;5075513;27;45284;-71
2023/05/04 04:55:42;;;;;;;;;6.50;3.50;;;;;20.04;39.34;100846.00;5053912;28;45275;-71
2023/05/04 04:58:08;;;;;;;;;3.50;3.50;;;;;20.02;39.64;100846.09;5072114;27;73569;-71
2023/05/04 05:00:34;;;;;;;;;5.25;4.00;;;;;20.04;39.87;100846.00;5075533;27;46063;-71
2023/05/04 05:03:00;;;;;;;;;5.00;5.00;;;;;20.03;39.58;100839.84;5073349;27;45735;-71
2023/05/04 05:05:26;;;;;;;;;4.75;4.75;;;;;20.02;39.38;100831.97;5074832;28;45430;-71
2023/05/04 05:07:51;;;;;;;;;5.00;4.50;;;;;20.03;39.43;100837.19;5077104;27;72309;-71
2023/05/04 05:10:17;;;;;;;;;8.00;3.50;;;;;20.01;39.79;100841.75;5062495;28;47220;-71
2023/05/04 05:12:42;;;;;;;;;5.00;5.00;;;;;20.04;39.62;100832.72;5073391;27;45509;-71
2023/05/04 05:15:08;;;;;;;;;3.50;3.50;;;;;20.04;39.42;100840.69;5074594;27;45433;-71
2023/05/04 05:17:36;;;;;;;;;4.50;3.75;;;;;20.02;39.46;100830.16;5074592;27;45336;-71
2023/05/04 05:20:02;;;;;;;;;5.00;5.00;;;;;20.04;39.38;100832.72;5074783;27;46356;-71
2023/05/04 05:22:28;;;;;;;;;5.00;5.00;;;;;20.00;39.14;100828.56;5074856;28;45463;-71
2023/05/04 05:24:53;;;;;;;;;5.25;4.00;;;;;20.02;39.72;100835.47;5071160;27;45280;-71
2023/05/04 05:27:18;;;;;;;;;4.50;4.50;;;;;20.03;39.42;100829.22;5076026;28;65589;-71
2023/05/04 05:29:44;;;;;;;;;4.75;4.75;;;;;20.02;39.60;100832.81;5076391;27;46417;-71
2023/05/04 05:32:09;;;;;;;;;5.00;4.25;;;;;20.03;39.66;100834.53;5056685;28;45794;-71
2023/05/04 05:34:37;;;;;;;;;4.25;4.00;;;;;20.02;39.56;100834.63;5074011;27;70541;-71
2023/05/04 05:37:04;;;;;;;;;4.00;4.00;;;;;20.02;39.52;100837.28;5077577;27;45433;-71
2023/05/04 05:39:29;;;;;;;;;4.25;4.00;;;;;20.03;39.42;100839.84;5076862;27;45712;-72
2023/05/04 05:41:57;;;;;;;;;5.00;5.00;;;;;20.02;39.60;100829.31;5075697;27;45471;-71
2023/05/04 05:44:22;;;;;;;;;6.00;4.75;;;;;20.02;39.47;100831.97;5075202;28;45455;-71
2023/05/04 05:46:47;;;;;;;;;6.75;6.00;;;;;20.02;39.58;100843.44;5076664;27;45559;-71
2023/05/04 05:49:13;;;;;;;;;6.00;4.00;;;;;20.02;39.63;100847.91;5060430;27;48299;-71
2023/05/04 05:51:38;;;;;;;;;7.00;5.00;;;;;20.03;39.31;100855.78;5071547;27;62441;-71
2023/05/04 05:54:03;;;;;;;;;6.75;5.00;;;;;20.03;39.54;100855.78;5073453;28;70813;-71
2023/05/04 05:56:29;;;;;;;;;6.25;3.00;;;;;20.04;39.51;100859.28;5073209;28;57153;-71
2023/05/04 05:58:54;;;;;;;;;4.00;4.00;;;;;20.03;39.50;100854.94;5051413;28;47111;-71
2023/05/04 06:01:19;;;;;;;;;5.00;4.00;;;;;19.99;39.60;100856.94;5069734;28;45469;-71
2023/05/04 06:03:45;;;;;;;;;4.50;4.50;;;;;20.02;39.49;100859.38;5074252;27;61499;-71
2023/05/04 06:06:11;;;;;;;;;7.25;4.25;;;;;20.02;39.41;100858.53;5056152;28;45482;-71
2023/05/04 06:08:36;;;;;;;;;5.50;5.00;;;;;20.01;39.39;100852.38;5072973;27;45609;-71
2023/05/04 06:11:01;;;;;;;;;5.00;5.00;;;;;20.02;39.26;100845.25;5053811;28;45875;-71
2023/05/04 06:13:27;;;;;;;;;6.25;4.25;;;;;20.03;39.57;100853.13;5070064;28;45733;-71
2023/05/04 06:15:53;;;;;;;;;3.50;3.00;;;;;20.02;39.39;100848.75;5076067;28;46159;-71
2023/05/04 06:18:19;;;;;;;;;6.75;4.00;;;;;20.02;39.73;100839.94;5072377;27;45405;-71
2023/05/04 06:20:44;;;;;;;;;5.75;5.75;;;;;20.04;39.59;100830.06;5077516;28;45384;-71
2023/05/04 06:23:09;;;;;;;;;7.00;5.00;;;;;20.03;39.43;100826.56;5055254;28;45347;-71
2023/05/04 06:25:35;;;;;;;;;4.50;4.00;;;;;20.02;39.64;100816.03;5078463;27;45343;-71
2023/05/04 06:28:00;;;;;;;;;7.00;5.00;;;;;20.04;39.53;100817.63;5074920;28;51714;-71
2023/05/04 06:30:25;;;;;;;;;7.00;5.00;;;;;20.04;39.65;100819.41;5077609;27;67166;-71
2023/05/04 06:32:51;;;;;;;;;5.00;5.00;;;;;20.03;39.50;100810.59;5072067;27;66205;-71
2023/05/04 06:35:17;;;;;;;;;4.00;4.00;;;;;20.04;39.58;100819.41;5074130;27;68975;-71
2023/05/04 06:37:43;;;;;;;;;4.00;3.75;;;;;20.03;39.38;100825.72;5071867;28;47103;-71
2023/05/04 06:40:08;;;;;;;;;8.00;4.50;;;;;20.05;39.47;100818.47;5077429;27;67393;-71
2023/05/04 06:42:34;;;;;;;;;5.25;5.25;;;;;20.03;39.43;100823.91;5074705;27;45417;-71
2023/05/04 06:44:59;;;;;;;;;4.50;4.50;;;;;20.04;39.67;100822.06;5077353;27;45611;-71
2023/05/04 06:47:25;;;;;;;;;6.25;4.00;;;;;20.04;39.65;100822.06;5072527;28;45331;-71
2023/05/04 06:49:50;;;;;;;;;4.25;4.25;;;;;20.03;39.33;100821.22;5075133;27;45368;-71
2023/05/04 06:52:15;;;;;;;;;7.00;5.75;;;;;20.05;39.67;100823.78;5069926;28;56777;-71
2023/05/04 06:54:41;;;;;;;;;5.00;5.00;;;;;20.05;39.40;100832.59;5058874;28;51593;-71
2023/05/04 06:57:06;;;;;;;;;8.00;4.75;;;;;20.04;39.51;100828.25;5071298;27;46160;-71
2023/05/04 06:59:31;;;;;;;;;5.00;4.75;;;;;20.05;39.49;100821.97;5059695;28;45283;-71
2023/05/04 07:01:57;;;;;;;;;3.50;3.25;;;;;20.06;39.30;100817.50;5073040;28;45444;-71
2023/05/04 07:04:22;;;;;;;;;6.00;5.00;;;;;20.06;39.30;100814.84;5071860;28;71086;-71
2023/05/04 07:06:51;;;;;;;;;6.00;4.50;;;;;20.06;39.67;100807.75;5076151;28;45550;-71
2023/05/04 07:09:18;;;;;;;;;4.50;4.50;;;;;20.04;39.56;100795.50;5074142;27;45337;-71
2023/05/04 07:11:44;;;;;;;;;5.75;5.00;;;;;20.08;39.52;100818.28;5072412;27;45501;-71
2023/05/04 07:14:10;;;;;;;;;6.25;6.00;;;;;20.05;39.61;100805.19;5074517;27;45389;-71
2023/05/04 07:16:35;;;;;;;;;9.75;5.00;;;;;20.05;39.39;100808.69;5070920;28;46559;-71
2023/05/04 07:19:00;;;;;;;;;7.75;5.25;;;;;20.06;39.69;100801.56;5074718;28;45803;-71
2023/05/04 07:21:26;;;;;;;;;6.00;5.25;;;;;20.07;39.45;100804.13;5074924;28;45748;-71
2023/05/04 07:23:51;;;;;;;;;5.50;4.00;;;;;20.08;39.87;100800.53;5074089;27;62384;-71
2023/05/04 07:26:17;;;;;;;;;5.25;5.25;;;;;20.07;39.45;100800.63;5071589;28;73670;-72
2023/05/04 07:28:42;;;;;;;;;5.00;5.00;;;;;20.09;39.83;100806.69;5080989;27;45449;-72
2023/05/04 07:31:08;;;;;;;;;4.00;4.00;;;;;20.07;40.00;100811.25;5057237;28;45331;-72
2023/05/04 07:33:33;;;;;;;;;5.00;4.00;;;;;20.09;39.39;100826.13;5080776;27;45524;-72
2023/05/04 07:35:59;;;;;;;;;8.75;6.00;;;;;20.09;39.66;100823.47;5075065;28;74121;-70
2023/05/04 07:38:25;;;;;;;;;4.75;4.00;;;;;20.06;39.87;100826.34;5078004;27;45407;-70
2023/05/04 07:40:52;;;;;;;;;7.50;5.25;;;;;20.09;40.00;100828.78;5076869;28;45466;-70
2023/05/04 07:43:18;;;;;;;;;5.25;4.00;;;;;20.09;39.27;100822.63;5078353;27;45551;-72
2023/05/04 07:45:43;;;;;;;;;6.25;5.00;;;;;20.08;39.75;100821.78;5079280;28;45730;-72
2023/05/04 07:48:08;;;;;;;;;5.00;5.00;;;;;20.09;39.74;100815.50;5075803;27;68922;-72
2023/05/04 07:50:34;;;;;;;;;7.75;6.00;;;;;20.10;39.60;100813.72;5061609;28;45351;-72
2023/05/04 07:52:59;;;;;;;;;4.00;4.00;;;;;20.10;39.46;100813.72;5072321;27;45402;-73
2023/05/04 07:55:27;;;;;;;;;6.25;6.00;;;;;20.12;39.83;100813.63;5076703;27;45291;-72
2023/05/04 07:57:52;;;;;;;;;5.00;4.75;;;;;20.09;39.83;100814.66;5058556;27;45935;-72
2023/05/04 08:00:18;;;;;;;;;5.00;5.00;;;;;20.10;39.45;100819.88;5076347;28;64616;-72
2023/05/04 08:02:44;;;;;;;;;4.00;4.00;;;;;20.09;39.45;100812.84;5070561;27;45668;-73
2023/05/04 08:05:10;;;;;;;;;6.50;6.00;;;;;20.12;39.86;100808.31;5076937;28;45387;-73
2023/05/04 08:07:35;;;;;;;;;6.25;6.00;;;;;20.10;39.55;100811.06;5071074;27;45343;-71
2023/05/04 08:10:01;;;;;;;;;7.75;5.25;;;;;20.12;39.74;100809.16;5058949;28;45445;-71
2023/05/04 08:12:26;;;;;;;;;6.50;4.50;;;;;20.12;39.53;100813.63;5074170;27;66851;-70
2023/05/04 08:14:52;;;;;;;;;5.00;5.00;;;;;20.12;39.62;100818.94;5076754;28;46465;-71
2023/05/04 08:17:17;;;;;;;;;5.50;4.75;;;;;20.11;39.35;100804.78;5058047;28;65491;-71
2023/05/04 08:19:42;;;;;;;;;6.75;5.00;;;;;20.12;39.77;100806.50;5076772;27;45358;-72
2023/05/04 08:22:08;;;;;;;;;7.75;5.00;;;;;20.12;39.90;100811.81;5057199;27;64684;-72
2023/05/04 08:24:33;;;;;;;;;6.00;4.75;;;;;20.09;39.86;100807.53;5081275;28;45416;-74
2023/05/04 08:26:58;;;;;;;;;6.75;5.00;;;;;20.10;40.03;100819.03;5074246;27;62306;-73
2023/05/04 08:29:24;;;;;;;;;5.50;5.00;;;;;20.12;39.58;100827.75;5080144;27;51412;-72
2023/05/04 08:31:49;;;;;;;;;6.00;5.25;;;;;20.13;39.87;100815.31;5075249;27;65843;-71
2023/05/04 08:34:15;;;;;;;;;8.75;6.75;;;;;20.14;40.06;100819.69;5080606;27;60860;-73
2023/05/04 08:36:40;;;;;;;;;7.75;7.00;;;;;20.12;40.09;100816.28;5078499;27;45739;-73
2023/05/04 08:39:06;;;;;;;;;5.00;5.00;;;;;20.13;39.96;100808.19;5077392;27;66028;-73
2023/05/04 08:41:31;;;;;;;;;7.25;6.00;;;;;20.11;39.92;100802.13;5078746;27;45662;-73
2023/05/04 08:43:57;;;;;;;;;6.25;6.25;;;;;20.13;39.57;100802.03;5077372;27;64161;-73
2023/05/04 08:46:23;;;;;;;;;6.00;6.00;;;;;20.13;39.50;100791.41;5077089;27;45936;-73
2023/05/04 08:48:48;;;;;;;;;4.50;4.50;;;;;20.13;39.68;100783.44;5076799;27;45402;-73
2023/05/04 08:51:14;;;;;;;;;7.00;6.00;;;;;20.10;39.85;100781.84;5071455;27;45528;-73
2023/05/04 08:53:44;;;;;;;;;5.75;4.75;;;;;20.12;39.68;100784.41;5071810;27;46147;-73
2023/05/04 08:56:12;;;;;;;;;6.25;5.00;;;;;20.15;39.96;100786.81;5074891;27;45270;-73
2023/05/04 08:58:47;;;;;;;;;5.25;5.25;;;;;20.14;39.81;100779.84;5057215;28;45449;-73
2023/05/04 09:01:14;;;;;;;;;8.75;6.75;;;;;20.12;40.03;100771.97;5075754;27;45643;-73
2023/05/04 09:03:39;;;;;;;;;9.00;5.50;;;;;20.13;39.69;100781.63;5067888;28;46009;-73
2023/05/04 09:06:06;;;;;;;;;6.00;6.00;;;;;20.15;39.74;100778.84;5057986;27;71545;-71
2023/05/04 09:08:32;;;;;;;;;6.00;5.50;;;;;20.14;39.69;100771.84;5059723;28;45395;-71
2023/05/04 09:10:58;;;;;;;;;7.25;5.25;;;;;20.13;39.99;100778.97;5076007;28;45654;-71
2023/05/04 09:13:23;;;;;;;;;5.50;5.50;;;;;20.14;39.61;100790.47;5074813;27;69341;-71
2023/05/04 09:15:55;;;;;;;;;9.75;6.00;;;;;20.14;40.15;100799.28;5076383;27;61195;-71
2023/05/04 09:18:21;;;;;;;;;5.75;5.00;;;;;20.15;39.87;100805.44;5073620;28;45459;-71
2023/05/04 09:20:47;;;;;;;;;6.00;4.25;;;;;20.14;40.02;100778.00;5077240;27;45310;-71
2023/05/04 09:23:13;;;;;;;;;5.00;4.25;;;;;20.16;39.78;100777.91;5055727;28;47579;-71
2023/05/04 09:25:49;;;;;;;;;6.00;6.00;;;;;20.15;39.88;100779.72;5074201;27;45275;-71
2023/05/04 09:28:16;;;;;;;;;4.25;4.25;;;;;20.16;39.86;100772.59;5074956;28;45428;-71
2023/05/04 09:30:41;;;;;;;;;7.75;5.50;;;;;20.17;39.74;100766.31;5074879;28;45478;-71
2023/05/04 09:33:11;;;;;;;;;6.00;5.00;;;;;20.14;39.84;100764.72;5075753;28;45474;-71
2023/05/04 09:35:41;;;;;;;;;8.00;6.75;;;;;20.18;40.18;100773.34;5062223;28;46071;-71
2023/05/04 09:38:07;;;;;;;;;6.75;6.25;;;;;20.17;39.81;100767.19;5061691;28;45423;-71
2023/05/04 09:40:39;;;;;;;;;6.25;4.75;;;;;20.16;39.79;100767.28;5059003;28;45910;-71
2023/05/04 09:43:05;;;;;;;;;6.50;4.00;;;;;20.17;39.67;100767.19;5068496;28;46290;-71
2023/05/04 09:45:41;;;;;;;;;5.50;5.50;;;;;20.16;40.18;100767.28;5079175;28;45387;-71
2023/05/04 09:48:25;;;;;;;;;5.00;5.00;;;;;20.19;40.13;100775.06;5072537;28;45479;-71
2023/05/04 09:50:55;;;;;;;;;7.75;5.00;;;;;20.16;39.77;100773.44;5077475;27;45513;-71
2023/05/04 09:53:26;;;;;;;;;8.75;6.00;;;;;20.16;40.04;100773.44;5057729;28;46985;-71
2023/05/04 09:56:13;;;;;;;;;9.25;5.00;;;;;20.19;40.17;100767.94;5072972;28;45881;-71
2023/05/04 09:58:39;;;;;;;;;9.00;6.50;;;;;20.19;39.85;100765.28;5071139;28;45496;-73
2023/05/04 10:01:05;;;;;;;;;5.00;5.00;;;;;20.16;39.47;100761.97;5069570;27;45713;-73
2023/05/04 10:03:31;;;;;;;;;6.50;6.00;;;;;20.20;39.84;100767.00;5066926;28;45394;-73
2023/05/04 10:05:58;;;;;;;;;4.75;4.75;;;;;20.19;40.29;100762.63;5074322;27;45441;-72
2023/05/04 10:08:24;;;;;;;;;5.50;5.50;;;;;20.19;39.92;100773.25;5074876;28;45404;-73
2023/05/04 10:10:51;;;;;;;;;6.00;6.00;;;;;20.20;39.93;100774.97;5073707;28;45273;-73
2023/05/04 10:13:16;;;;;;;;;6.00;5.00;;;;;20.20;40.00;100764.34;5077394;27;54606;-73
2023/05/04 10:16:12;;;;;;;;;7.00;6.00;;;;;20.21;40.14;100762.53;5058746;28;45414;-73
2023/05/04 10:19:23;;;;;;;;;8.25;6.00;;;;;20.21;40.04;100746.56;5065660;27;45395;-73
2023/05/04 10:22:10;;;;;;;;;5.25;4.50;;;;;20.21;39.86;100755.41;5064891;27;45510;-71
2023/05/04 10:24:58;;;;;;;;;5.50;5.25;;;;;20.22;40.21;100756.22;5087663;27;47599;-71
2023/05/04 10:27:33;;;;;;;;;6.75;5.50;;;;;20.23;40.14;100755.28;5075559;27;45821;-73
2023/05/04 10:30:00;;;;;;;;;6.75;5.25;;;;;20.21;40.17;100751.91;5076052;27;45270;-73
2023/05/04 10:32:26;;;;;;;;;4.75;4.75;;;;;20.20;40.38;100751.06;5071551;27;45453;-73
2023/05/04 10:35:03;;;;;;;;;7.50;6.25;;;;;20.22;40.19;100756.22;5073942;27;67787;-73
2023/05/04 10:37:30;;;;;;;;;8.00;8.00;;;;;20.18;39.93;100734.34;5070309;27;45742;-73
2023/05/04 10:39:55;;;;;;;;;5.00;5.00;;;;;20.23;39.87;100723.41;5076439;27;45589;-73
2023/05/04 10:42:21;;;;;;;;;6.00;6.00;;;;;20.23;39.74;100723.41;5075330;28;45521;-73
2023/05/04 10:44:53;;;;;;;;;6.00;5.50;;;;;20.23;39.97;100721.59;5053130;28;46345;-73
2023/05/04 10:47:46;;;;;;;;;8.00;6.00;;;;;20.24;39.97;100714.50;5074721;27;45292;-73
2023/05/04 10:50:15;;;;;;;;;7.00;5.75;;;;;20.20;39.88;100705.00;5060936;28;45387;-73
2023/05/04 10:52:49;;;;;;;;;7.75;6.00;;;;;20.24;40.26;100714.50;5071613;27;46303;-73
2023/05/04 10:55:15;;;;;;;;;8.75;7.00;;;;;20.23;39.98;100718.94;5071214;28;47208;-73
2023/05/04 10:57:57;;;;;;;;;8.00;5.00;;;;;20.23;40.02;100718.09;5065792;28;46056;-73
2023/05/04 11:00:35;;;;;;;;;9.25;5.00;;;;;20.25;40.35;100735.63;5072129;28;45389;-73
2023/05/04 11:03:04;;;;;;;;;8.00;6.00;;;;;20.24;39.82;100735.75;5080830;28;45260;-73
2023/05/04 11:05:44;;;;;;;;;6.25;6.25;;;;;20.24;39.98;100736.59;5077390;27;47356;-73
2023/05/04 11:08:15;;;;;;;;;8.50;8.00;;;;;20.24;40.21;100736.59;5075824;27;45557;-73
2023/05/04 11:10:41;;;;;;;;;8.50;6.50;;;;;20.24;40.18;100739.25;5078355;27;45364;-73
2023/05/04 11:13:10;;;;;;;;;5.75;5.75;;;;;20.25;40.24;100740.09;5076756;27;45251;-73
2023/05/04 11:15:50;;;;;;;;;9.00;6.50;;;;;20.23;40.08;100750.81;5057889;28;47188;-73
2023/05/04 11:18:32;;;;;;;;;10.00;8.50;;;;;20.25;40.24;100740.94;5072796;28;45778;-73
2023/05/04 11:20:58;;;;;;;;;7.75;6.75;;;;;20.25;40.63;100759.53;5079372;27;45469;-73
2023/05/04 11:23:24;;;;;;;;;6.00;6.00;;;;;20.25;40.36;100764.84;5081982;27;45444;-73